Time;durP1;ratioP1;P1;durP2;ratioP2;P2;SDS_P1;SDS_P2;PMS_P1;PMS_P2;Temp;Humidity;BMP_temperature;BMP_pressure;BME280_temperature;BME280_humidity;BME280_pressure;Samples;Min_cycle;Max_cycle;Signal;HPM_P1;HPM_P2
2022/01/11 00:00:35;;;;;;;21.23;9.43;;;0.70;64.50;;;;;;5101202;28;19957;-85
2022/01/11 00:03:03;;;;;;;24.13;10.90;;;0.70;64.20;;;;;;5102747;28;20424;-85
2022/01/11 00:07:55;;;;;;;20.95;9.77;;;0.70;64.20;;;;;;5103844;28;20112;-85
2022/01/11 00:10:48;;;;;;;;;;;0.70;64.20;;;;;;5096277;28;20387;-84
2022/01/11 00:13:07;;;;;;;26.10;9.93;;;0.80;64.20;;;;;;5110831;28;19953;-85
2022/01/11 00:15:32;;;;;;;22.75;10.05;;;0.80;64.00;;;;;;5105875;28;20121;-86
2022/01/11 00:18:00;;;;;;;23.55;10.80;;;0.80;64.00;;;;;;5099716;28;20024;-86
2022/01/11 00:20:28;;;;;;;24.57;9.50;;;0.80;64.00;;;;;;5103061;28;20039;-85
2022/01/11 00:25:28;;;;;;;26.43;11.20;;;0.80;64.00;;;;;;5102772;28;20544;-86
2022/01/11 00:27:55;;;;;;;23.77;9.50;;;0.80;63.90;;;;;;5104514;28;20023;-86
2022/01/11 00:30:21;;;;;;;;;;;0.80;63.80;;;;;;5099348;28;20530;-84
2022/01/11 00:32:51;;;;;;;23.33;9.53;;;0.80;63.80;;;;;;5102276;28;19999;-85
2022/01/11 00:35:22;;;;;;;23.03;9.50;;;0.80;63.60;;;;;;5101571;28;20024;-85
2022/01/11 00:37:48;;;;;;;25.30;9.93;;;0.80;63.60;;;;;;5104794;28;20059;-85
2022/01/11 00:40:14;;;;;;;;;;;0.80;63.70;;;;;;5108892;28;20031;-85
2022/01/11 00:42:39;;;;;;;24.03;9.83;;;0.80;63.80;;;;;;5101232;28;19926;-85
2022/01/11 00:45:08;;;;;;;30.52;10.77;;;0.80;63.50;;;;;;5101678;28;20502;-85
2022/01/11 00:47:34;;;;;;;29.87;10.37;;;0.80;63.60;;;;;;5109103;28;20024;-86
2022/01/11 00:49:59;;;;;;;22.25;9.93;;;0.80;63.70;;;;;;5099087;28;20034;-86
2022/01/11 00:52:25;;;;;;;22.42;10.20;;;0.80;63.60;;;;;;5102547;28;20028;-84
2022/01/11 00:54:50;;;;;;;;;;;0.80;63.70;;;;;;5106041;28;20028;-86
2022/01/11 00:57:16;;;;;;;24.00;9.83;;;0.90;63.70;;;;;;5113218;28;19916;-85
2022/01/11 00:59:42;;;;;;;26.42;10.52;;;0.90;63.40;;;;;;5105297;28;20090;-86
2022/01/11 01:02:07;;;;;;;22.45;10.57;;;0.90;63.50;;;;;;5103947;28;20119;-85
2022/01/11 01:04:33;;;;;;;26.48;10.63;;;0.90;63.50;;;;;;5106389;28;20107;-85
2022/01/11 01:06:59;;;;;;;24.80;9.82;;;0.90;63.50;;;;;;5108653;28;20102;-86
2022/01/11 01:09:32;;;;;;;27.17;9.63;;;0.90;63.50;;;;;;5111790;28;20445;-84
2022/01/11 01:11:57;;;;;;;23.03;10.40;;;0.90;63.40;;;;;;5112714;28;20106;-85
2022/01/11 01:14:23;;;;;;;22.30;9.73;;;0.90;63.40;;;;;;5101852;28;20059;-82
2022/01/11 01:16:48;;;;;;;23.55;9.13;;;0.90;63.40;;;;;;5099363;28;20055;-85
2022/01/11 01:19:14;;;;;;;22.60;9.40;;;0.90;63.30;;;;;;5107402;28;20021;-84
2022/01/11 01:21:39;;;;;;;20.45;9.10;;;0.90;63.30;;;;;;5105591;28;20028;-85
2022/01/11 01:24:10;;;;;;;27.77;9.88;;;0.80;63.20;;;;;;5109900;28;20081;-85
2022/01/11 01:26:36;;;;;;;21.70;9.53;;;0.90;63.20;;;;;;5103687;28;20019;-85
2022/01/11 01:29:02;;;;;;;;;;;0.90;63.10;;;;;;5106195;28;20019;-85
2022/01/11 01:31:28;;;;;;;20.90;8.90;;;0.90;63.20;;;;;;5109740;28;19930;-85
2022/01/11 01:33:54;;;;;;;;;;;0.90;63.00;;;;;;5102351;28;20407;-86
2022/01/11 01:36:20;;;;;;;25.30;8.97;;;0.90;63.20;;;;;;5104483;28;19919;-86
2022/01/11 01:38:45;;;;;;;22.70;8.32;;;0.90;63.00;;;;;;5111204;28;20023;-84
2022/01/11 01:41:19;;;;;;;;;;;0.90;63.10;;;;;;5115337;28;20491;-84
2022/01/11 01:43:47;;;;;;;22.57;8.10;;;0.80;63.20;;;;;;5106143;28;19924;-84
2022/01/11 01:46:14;;;;;;;19.47;8.83;;;0.90;62.90;;;;;;5109900;28;20026;-84
2022/01/11 01:48:40;;;;;;;24.53;8.57;;;0.80;63.00;;;;;;5108839;28;20032;-84
2022/01/11 01:51:07;;;;;;;23.90;9.15;;;0.80;63.00;;;;;;5103770;28;20042;-85
2022/01/11 01:53:41;;;;;;;24.83;9.77;;;0.80;63.10;;;;;;5106613;28;20077;-84
2022/01/11 01:56:07;;;;;;;21.70;9.23;;;0.80;63.20;;;;;;5106400;28;20118;-84
2022/01/11 01:58:33;;;;;;;;;;;0.80;63.20;;;;;;5110472;28;20032;-84
2022/01/11 02:01:04;;;;;;;19.60;8.00;;;0.80;63.30;;;;;;5110474;28;19908;-84
2022/01/11 02:03:38;;;;;;;20.80;9.13;;;0.80;63.10;;;;;;5099134;28;20035;-85
2022/01/11 02:06:05;;;;;;;21.83;8.97;;;0.80;63.20;;;;;;5102511;28;20473;-85
2022/01/11 02:08:31;;;;;;;24.27;10.30;;;0.80;63.30;;;;;;5100723;28;20526;-85
2022/01/11 02:10:57;;;;;;;;;;;0.90;63.30;;;;;;5106943;28;20514;-85
2022/01/11 02:13:23;;;;;;;17.27;7.67;;;0.90;63.40;;;;;;5102897;28;19912;-86
2022/01/11 02:15:50;;;;;;;;;;;0.80;63.00;;;;;;5111868;28;20053;-85
2022/01/11 02:18:22;;;;;;;23.70;8.07;;;0.80;63.20;;;;;;5103286;28;20374;-84
2022/01/11 02:20:50;;;;;;;14.40;6.83;;;0.80;63.00;;;;;;5103003;28;20134;-84
2022/01/11 02:23:18;;;;;;;19.70;8.03;;;0.80;63.10;;;;;;5103185;28;20047;-85
2022/01/11 02:25:47;;;;;;;15.77;7.50;;;0.80;63.10;;;;;;5105614;28;20028;-85
2022/01/11 02:28:15;;;;;;;24.90;8.23;;;0.70;63.20;;;;;;5107196;28;20062;-85
2022/01/11 02:30:41;;;;;;;18.13;7.77;;;0.70;63.20;;;;;;5099525;28;20028;-85
2022/01/11 02:33:15;;;;;;;24.02;8.77;;;0.70;63.30;;;;;;5105181;28;20111;-86
2022/01/11 02:35:48;;;;;;;19.33;7.77;;;0.80;63.30;;;;;;5110129;28;20135;-85
2022/01/11 02:38:13;;;;;;;20.13;7.77;;;0.80;63.30;;;;;;5099342;28;20028;-86
2022/01/11 02:40:39;;;;;;;18.85;8.27;;;0.80;63.20;;;;;;5103537;28;20043;-86
2022/01/11 02:43:06;;;;;;;22.27;8.65;;;0.80;63.20;;;;;;5108518;28;20114;-85
2022/01/11 02:45:31;;;;;;;16.13;8.27;;;0.80;63.20;;;;;;5108495;28;20052;-83
2022/01/11 02:47:57;;;;;;;19.25;8.85;;;0.80;63.20;;;;;;5110215;28;20488;-84
2022/01/11 02:50:24;;;;;;;;;;;0.80;63.20;;;;;;5104245;28;20026;-84
2022/01/11 02:52:50;;;;;;;18.20;7.85;;;0.80;63.30;;;;;;5103147;28;19908;-84
2022/01/11 02:55:16;;;;;;;17.45;7.68;;;0.80;63.00;;;;;;5106284;28;20026;-85
2022/01/11 02:57:42;;;;;;;18.98;8.40;;;0.80;63.10;;;;;;5102111;28;20051;-85
2022/01/11 03:00:11;;;;;;;20.33;8.90;;;0.80;63.20;;;;;;5099140;28;20032;-86
2022/01/11 03:02:37;;;;;;;17.90;8.27;;;0.80;63.30;;;;;;5099544;28;20027;-85
2022/01/11 03:05:08;;;;;;;18.55;7.40;;;0.80;63.30;;;;;;5107660;28;20024;-85
2022/01/11 03:07:34;;;;;;;14.87;5.97;;;0.80;63.40;;;;;;5108750;28;20399;-85
2022/01/11 03:10:07;;;;;;;22.48;5.50;;;0.80;63.10;;;;;;5103157;28;20019;-85
2022/01/11 03:12:33;;;;;;;18.07;7.93;;;0.80;62.90;;;;;;5099140;28;20024;-86
2022/01/11 03:14:59;;;;;;;39.50;5.67;;;0.70;62.60;;;;;;5103852;28;20541;-85
2022/01/11 03:17:26;;;;;;;22.83;8.30;;;0.60;62.50;;;;;;5103061;28;20016;-85
2022/01/11 03:19:53;;;;;;;20.13;8.00;;;0.50;62.50;;;;;;5109605;28;20522;-85
2022/01/11 03:22:19;;;;;;;16.43;7.53;;;0.50;62.50;;;;;;5112231;28;20036;-85
2022/01/11 03:24:47;;;;;;;16.27;7.10;;;0.40;62.50;;;;;;5101557;28;20087;-85
2022/01/11 03:27:13;;;;;;;10.43;4.97;;;0.40;62.40;;;;;;5104513;28;20472;-85
2022/01/11 03:29:39;;;;;;;;;;;0.30;62.00;;;;;;5109373;28;20027;-84
2022/01/11 03:32:06;;;;;;;16.38;6.57;;;0.30;61.90;;;;;;5099681;28;19908;-86
2022/01/11 03:34:32;;;;;;;7.60;4.33;;;0.20;61.50;;;;;;5102627;28;20806;-86
2022/01/11 03:36:58;;;;;;;;;;;0.10;61.50;;;;;;5109806;28;20114;-85
2022/01/11 03:39:25;;;;;;;14.53;7.30;;;0.10;61.60;;;;;;5103164;28;19922;-84
2022/01/11 03:41:51;;;;;;;16.47;6.37;;;0.10;61.40;;;;;;5134556;27;20032;-86
2022/01/11 03:44:16;;;;;;;;;;;0.00;61.50;;;;;;5103790;28;20081;-86
2022/01/11 03:46:42;;;;;;;15.90;6.90;;;0.00;61.60;;;;;;5100954;28;19912;-85
2022/01/11 03:49:08;;;;;;;15.90;7.07;;;0.00;61.40;;;;;;5103892;28;20464;-85
2022/01/11 03:51:37;;;;;;;16.67;7.50;;;0.00;61.50;;;;;;5103287;28;20073;-85
2022/01/11 03:54:10;;;;;;;14.47;6.93;;;0.00;61.70;;;;;;5099714;28;20034;-85
2022/01/11 03:56:36;;;;;;;14.13;7.40;;;0.00;61.50;;;;;;5100615;28;20475;-84
2022/01/11 03:59:06;;;;;;;;;;;0.00;61.60;;;;;;5105678;28;20031;-85
2022/01/11 04:01:33;;;;;;;13.07;5.67;;;0.00;61.60;;;;;;5096843;28;19908;-85
2022/01/11 04:03:58;;;;;;;21.87;7.80;;;0.00;61.30;;;;;;5102479;28;20031;-85
2022/01/11 04:06:26;;;;;;;;;;;0.00;61.50;;;;;;5106559;28;20016;-84
2022/01/11 04:08:52;;;;;;;15.88;7.22;;;0.00;61.60;;;;;;5106404;28;19915;-85
2022/01/11 04:11:20;;;;;;;20.93;8.30;;;0.00;61.40;;;;;;5107093;28;20016;-85
2022/01/11 04:13:47;;;;;;;22.53;8.33;;;0.00;61.50;;;;;;5102247;28;20082;-85
2022/01/11 04:16:14;;;;;;;16.37;8.10;;;0.00;61.50;;;;;;5103956;28;20024;-85
2022/01/11 04:18:39;;;;;;;18.07;7.27;;;0.00;61.60;;;;;;5100581;28;20024;-85
2022/01/11 04:21:05;;;;;;;;;;;0.00;61.70;;;;;;5104506;28;20068;-83
2022/01/11 04:23:32;;;;;;;17.63;7.40;;;0.00;61.70;;;;;;5102000;28;19923;-85
2022/01/11 04:25:57;;;;;;;20.73;8.17;;;0.00;61.50;;;;;;5103290;28;20049;-84
2022/01/11 04:28:23;;;;;;;;;;;0.00;61.60;;;;;;5102198;28;20111;-84
2022/01/11 04:30:58;;;;;;;17.30;7.37;;;0.00;61.80;;;;;;5110259;28;19994;-84
2022/01/11 04:33:24;;;;;;;12.77;5.60;;;0.00;61.60;;;;;;5101389;28;20035;-85
2022/01/11 04:35:50;;;;;;;20.20;7.53;;;0.00;61.70;;;;;;5105608;28;20028;-86
2022/01/11 04:38:21;;;;;;;18.67;7.50;;;0.00;61.80;;;;;;5101168;28;20024;-86
2022/01/11 04:40:47;;;;;;;17.93;8.37;;;-3276.70;61.90;;;;;;5097832;28;20549;-87
2022/01/11 04:43:12;;;;;;;;;;;0.00;62.00;;;;;;5098087;28;20051;-84
2022/01/11 04:45:38;;;;;;;14.90;6.27;;;0.00;62.10;;;;;;5101124;28;19908;-85
2022/01/11 04:48:18;;;;;;;19.13;7.32;;;0.00;61.80;;;;;;5098789;28;20020;-85
2022/01/11 04:50:45;;;;;;;17.03;5.93;;;0.00;61.90;;;;;;5109018;28;20054;-85
2022/01/11 04:53:11;;;;;;;18.63;7.80;;;0.00;61.80;;;;;;5103697;28;20028;-85
2022/01/11 04:55:36;;;;;;;;;;;0.00;61.90;;;;;;5099367;28;20545;-85
2022/01/11 04:58:02;;;;;;;14.87;6.67;;;0.00;62.00;;;;;;5105839;28;19916;-84
2022/01/11 05:00:28;;;;;;;;;;;0.00;61.70;;;;;;5101503;28;20027;-85
2022/01/11 05:02:59;;;;;;;16.17;5.23;;;0.00;61.80;;;;;;5109376;28;19912;-85
2022/01/11 05:05:26;;;;;;;16.40;6.60;;;0.00;61.70;;;;;;5095391;28;20020;-85
2022/01/11 05:07:52;;;;;;;15.70;6.97;;;0.00;61.90;;;;;;5099929;28;20028;-84
2022/01/11 05:10:17;;;;;;;18.90;7.65;;;-3276.70;62.00;;;;;;5109331;28;20039;-85
2022/01/11 05:12:43;;;;;;;;;;;-3276.70;62.10;;;;;;5101658;28;20174;-85
2022/01/11 05:15:12;;;;;;;20.03;6.77;;;-3276.70;62.20;;;;;;5104955;28;19912;-85
2022/01/11 05:17:39;;;;;;;12.43;6.50;;;-3276.70;62.00;;;;;;5100503;28;20118;-85
2022/01/11 05:20:06;;;;;;;13.87;5.93;;;-3276.70;62.10;;;;;;5107588;28;20019;-85
2022/01/11 05:22:32;;;;;;;17.67;6.40;;;-3276.70;62.20;;;;;;5094561;28;20040;-85
2022/01/11 05:24:58;;;;;;;;;;;-3276.70;62.30;;;;;;5111297;28;20020;-84
2022/01/11 05:27:24;;;;;;;16.20;6.53;;;0.00;62.30;;;;;;5101276;28;19912;-84
2022/01/11 05:29:49;;;;;;;16.80;7.38;;;0.00;62.10;;;;;;5102504;28;20027;-85
2022/01/11 05:32:15;;;;;;;16.45;5.47;;;0.00;62.20;;;;;;5107238;28;20073;-85
2022/01/11 05:34:41;;;;;;;;;;;0.00;62.30;;;;;;5102421;28;20036;-86
2022/01/11 05:37:06;;;;;;;15.50;6.73;;;0.00;62.30;;;;;;5107834;28;19998;-85
2022/01/11 05:39:32;;;;;;;14.77;6.45;;;0.00;62.10;;;;;;5108970;28;20020;-85
2022/01/11 05:41:59;;;;;;;22.40;8.50;;;0.00;62.20;;;;;;5100318;28;20496;-86
2022/01/11 05:44:25;;;;;;;18.33;8.23;;;0.00;62.30;;;;;;5099777;28;20024;-84
2022/01/11 05:46:50;;;;;;;;;;;0.00;62.40;;;;;;5112461;28;20023;-85
2022/01/11 05:49:16;;;;;;;13.83;6.17;;;0.00;62.50;;;;;;5106986;28;19915;-84
2022/01/11 05:51:42;;;;;;;17.55;6.40;;;0.00;62.30;;;;;;5101083;28;20507;-85
2022/01/11 05:54:08;;;;;;;12.30;5.32;;;0.00;62.40;;;;;;5106752;28;20035;-85
2022/01/11 05:56:34;;;;;;;22.43;8.73;;;0.00;62.50;;;;;;5101397;28;20030;-85
2022/01/11 05:58:59;;;;;;;;;;;0.00;62.50;;;;;;5108434;28;20024;-85
2022/01/11 06:01:25;;;;;;;17.80;8.17;;;0.00;62.60;;;;;;5103059;28;19961;-84
2022/01/11 06:03:50;;;;;;;15.18;6.65;;;0.00;62.40;;;;;;5111358;28;20031;-86
2022/01/11 06:06:16;;;;;;;;;;;0.00;62.50;;;;;;5103365;28;20422;-86
2022/01/11 06:08:42;;;;;;;19.87;8.63;;;0.00;62.60;;;;;;5104831;28;19919;-85
2022/01/11 06:11:08;;;;;;;14.13;6.32;;;0.00;62.40;;;;;;5107611;28;20364;-85
2022/01/11 06:13:34;;;;;;;16.63;8.73;;;0.00;62.50;;;;;;5101517;28;20084;-86
2022/01/11 06:16:00;;;;;;;;;;;0.00;62.60;;;;;;5112538;28;20128;-85
2022/01/11 06:18:25;;;;;;;19.73;7.50;;;0.00;62.70;;;;;;5106945;28;19953;-86
2022/01/11 06:20:51;;;;;;;;;;;0.00;62.50;;;;;;5105251;28;20039;-86
2022/01/11 06:23:16;;;;;;;17.27;8.00;;;0.00;62.60;;;;;;5102384;28;19916;-85
2022/01/11 06:25:42;;;;;;;21.85;7.65;;;0.00;62.50;;;;;;5104363;28;20024;-84
2022/01/11 06:28:07;;;;;;;;;;;0.00;62.60;;;;;;5104150;28;20016;-84
2022/01/11 06:30:33;;;;;;;21.40;8.37;;;0.00;62.80;;;;;;5090314;28;19912;-85
2022/01/11 06:32:58;;;;;;;;;;;0.10;62.60;;;;;;5106639;28;20069;-86
2022/01/11 06:35:25;;;;;;;21.80;8.30;;;0.10;62.80;;;;;;5109129;28;19907;-87
2022/01/11 06:37:50;;;;;;;;;;;0.10;62.60;;;;;;5104216;28;20030;-84
2022/01/11 06:40:18;;;;;;;23.83;8.77;;;0.10;62.80;;;;;;5105231;28;19999;-84
2022/01/11 06:42:45;;;;;;;23.87;10.23;;;0.10;62.60;;;;;;5097720;28;20032;-85
2022/01/11 06:45:11;;;;;;;29.00;8.87;;;0.10;62.80;;;;;;5110099;28;20016;-84
2022/01/11 06:47:41;;;;;;;23.90;9.87;;;0.10;62.90;;;;;;5102928;28;20012;-84
2022/01/11 06:50:08;;;;;;;24.30;8.97;;;0.10;63.00;;;;;;5099816;28;20022;-85
2022/01/11 06:52:33;;;;;;;21.80;9.07;;;0.10;63.10;;;;;;5106549;28;20037;-85
2022/01/11 06:54:59;;;;;;;24.77;9.57;;;0.10;63.20;;;;;;5105185;28;20024;-85
2022/01/11 06:57:27;;;;;;;30.08;11.07;;;0.10;63.20;;;;;;5101532;28;20074;-85
2022/01/11 06:59:52;;;;;;;21.57;9.40;;;0.10;63.30;;;;;;5102570;28;20062;-83
2022/01/11 07:02:18;;;;;;;;;;;0.10;63.30;;;;;;5111848;28;20066;-84
2022/01/11 07:04:44;;;;;;;21.40;10.03;;;0.20;63.30;;;;;;5098703;28;19919;-84
2022/01/11 07:07:09;;;;;;;24.92;9.57;;;0.20;63.00;;;;;;5104528;28;20372;-84
2022/01/11 07:09:36;;;;;;;25.48;9.52;;;0.20;63.20;;;;;;5100489;28;20144;-84
2022/01/11 07:12:02;;;;;;;20.83;9.90;;;0.30;63.20;;;;;;5106530;28;20024;-84
2022/01/11 07:14:27;;;;;;;26.17;10.33;;;0.30;63.20;;;;;;5097323;28;20028;-84
2022/01/11 07:16:53;;;;;;;;;;;0.30;63.20;;;;;;5103411;28;20346;-84
2022/01/11 07:19:19;;;;;;;25.50;11.80;;;0.30;63.30;;;;;;5110991;28;20002;-91
2022/01/11 07:21:45;;;;;;;;;;;0.40;63.00;;;;;;5116536;28;20472;-95
2022/01/11 07:24:16;;;;;;;24.50;10.40;;;0.50;63.10;;;;;;5106673;28;19947;-96
2022/01/11 07:26:42;;;;;;;26.10;9.60;;;0.50;62.80;;;;;;5107921;28;20116;-95
2022/01/11 07:29:08;;;;;;;25.47;10.10;;;0.40;63.00;;;;;;5117397;28;20469;-95
2022/01/11 07:31:39;;;;;;;23.90;9.63;;;0.50;63.00;;;;;;5118913;28;20500;-94
2022/01/11 07:34:05;;;;;;;27.23;11.07;;;0.50;63.10;;;;;;5101212;28;20396;-96
2022/01/11 07:36:32;;;;;;;23.87;9.80;;;0.50;63.10;;;;;;5118918;28;20048;-95
2022/01/11 07:38:57;;;;;;;21.60;9.57;;;0.50;63.10;;;;;;5123258;27;20027;-92
2022/01/11 07:41:23;;;;;;;20.83;9.38;;;0.50;63.10;;;;;;5106133;28;20053;-93
2022/01/11 07:43:51;;;;;;;21.13;10.10;;;0.50;63.20;;;;;;5102361;28;20026;-92
2022/01/11 07:46:17;;;;;;;22.73;10.43;;;0.60;63.20;;;;;;5104438;28;20083;-92
2022/01/11 07:48:43;;;;;;;25.60;10.77;;;0.60;63.20;;;;;;5107629;27;20069;-94
2022/01/11 07:51:08;;;;;;;29.30;11.77;;;0.60;63.10;;;;;;5109832;28;20051;-94
2022/01/11 07:53:34;;;;;;;29.77;11.55;;;0.60;63.20;;;;;;5100316;28;20020;-91
2022/01/11 07:56:03;;;;;;;36.63;14.32;;;0.70;63.10;;;;;;5115771;28;20039;-91
2022/01/11 07:58:29;;;;;;;25.97;11.80;;;0.70;63.10;;;;;;5118924;27;20078;-93
2022/01/11 08:00:55;;;;;;;28.83;12.02;;;0.70;63.10;;;;;;5113089;28;20024;-89
2022/01/11 08:03:20;;;;;;;33.53;13.30;;;0.70;63.10;;;;;;5102165;28;20035;-92
2022/01/11 08:05:50;;;;;;;33.90;12.67;;;0.80;63.10;;;;;;5108027;28;20042;-94
2022/01/11 08:08:16;;;;;;;31.27;13.70;;;0.80;63.10;;;;;;5100222;28;20397;-96
2022/01/11 08:10:42;;;;;;;32.72;13.23;;;0.80;63.10;;;;;;5101086;28;20039;-96
2022/01/11 08:13:10;;;;;;;32.50;13.40;;;0.80;63.20;;;;;;5111950;27;20136;-94
2022/01/11 08:15:37;;;;;;;33.70;12.60;;;0.80;63.20;;;;;;5120561;28;20057;-95
2022/01/11 08:18:06;;;;;;;31.70;13.60;;;0.80;63.20;;;;;;5119008;27;20028;-90
2022/01/11 08:20:32;;;;;;;35.33;13.93;;;0.80;63.20;;;;;;5101518;28;20028;-89
2022/01/11 08:22:57;;;;;;;48.17;17.27;;;0.70;63.30;;;;;;5103806;28;20109;-89
2022/01/11 08:25:24;;;;;;;41.03;16.77;;;0.60;63.40;;;;;;5100675;28;20399;-89
2022/01/11 08:27:50;;;;;;;42.77;17.10;;;0.60;63.60;;;;;;5105529;28;20047;-89
2022/01/11 08:30:16;;;;;;;43.43;17.77;;;0.50;63.70;;;;;;5101821;28;20066;-89
2022/01/11 08:32:42;;;;;;;;;;;0.40;63.80;;;;;;5104066;28;20031;-86
2022/01/11 08:35:08;;;;;;;39.83;16.50;;;0.30;63.90;;;;;;5101612;28;19908;-88
2022/01/11 08:37:34;;;;;;;;;;;0.30;63.80;;;;;;5104755;28;20022;-90
2022/01/11 08:39:59;;;;;;;41.23;16.17;;;0.20;64.00;;;;;;5108427;28;19908;-89
2022/01/11 08:42:25;;;;;;;;;;;0.10;63.90;;;;;;5113755;28;20088;-89
2022/01/11 08:44:51;;;;;;;39.80;15.13;;;0.00;64.10;;;;;;5102872;28;19908;-91
2022/01/11 08:47:17;;;;;;;45.95;16.92;;;0.00;64.10;;;;;;5109299;28;20016;-90
2022/01/11 08:49:43;;;;;;;47.40;17.97;;;-3276.70;64.30;;;;;;5107502;28;20441;-89
2022/01/11 08:52:10;;;;;;;;;;;-3276.70;64.50;;;;;;5105220;28;20026;-90
2022/01/11 08:54:36;;;;;;;47.92;16.63;;;-3276.70;64.70;;;;;;5106373;28;19907;-90
2022/01/11 08:57:02;;;;;;;;;;;-3276.70;64.50;;;;;;5110546;28;20163;-89
2022/01/11 08:59:27;;;;;;;35.30;14.70;;;-3276.60;64.60;;;;;;5100758;28;19965;-89
2022/01/11 09:01:58;;;;;;;37.03;15.88;;;-3276.70;64.50;;;;;;5106088;28;20373;-91
2022/01/11 09:04:26;;;;;;;41.43;15.40;;;-3276.60;64.70;;;;;;5106583;27;20032;-92
2022/01/11 09:06:53;;;;;;;44.33;16.07;;;-3276.60;64.80;;;;;;5113521;28;20036;-92
2022/01/11 09:09:20;;;;;;;46.83;17.20;;;-3276.60;65.00;;;;;;5110534;28;20104;-92
2022/01/11 09:11:46;;;;;;;49.43;18.40;;;-3276.60;65.00;;;;;;5114030;28;20016;-91
2022/01/11 09:14:12;;;;;;;;;;;-3276.70;65.10;;;;;;5108616;28;20466;-90
2022/01/11 09:16:37;;;;;;;46.20;16.37;;;-3276.70;65.10;;;;;;5108436;28;19908;-91
2022/01/11 09:19:03;;;;;;;;;;;0.00;64.70;;;;;;5108892;28;20058;-92
2022/01/11 09:21:31;;;;;;;33.87;13.93;;;0.00;64.80;;;;;;5109356;28;19994;-92
2022/01/11 09:23:56;;;;;;;42.93;15.57;;;0.00;64.60;;;;;;5112382;28;20044;-92
2022/01/11 09:26:22;;;;;;;38.40;14.23;;;0.00;64.60;;;;;;5117923;28;20016;-92
2022/01/11 09:28:48;;;;;;;36.60;15.85;;;0.10;64.70;;;;;;5116935;28;20036;-90
2022/01/11 09:31:13;;;;;;;;;;;0.20;64.60;;;;;;5113032;28;20118;-90
2022/01/11 09:33:39;;;;;;;40.47;15.47;;;0.30;64.60;;;;;;5106313;28;20006;-90
2022/01/11 09:36:05;;;;;;;42.42;15.80;;;0.40;64.20;;;;;;5112600;27;20128;-92
2022/01/11 09:38:30;;;;;;;38.15;15.27;;;0.60;64.10;;;;;;5102261;28;20044;-91
2022/01/11 09:40:57;;;;;;;;;;;0.80;64.00;;;;;;5111901;28;20020;-92
2022/01/11 09:43:26;;;;;;;39.63;14.27;;;0.90;63.80;;;;;;5110845;28;19919;-91
2022/01/11 09:45:52;;;;;;;33.67;12.80;;;1.10;63.40;;;;;;5113319;28;20323;-92
2022/01/11 09:48:20;;;;;;;33.03;13.70;;;1.20;63.30;;;;;;5108774;28;20101;-92
2022/01/11 09:50:46;;;;;;;51.20;17.23;;;1.30;63.10;;;;;;5112255;28;20023;-91
2022/01/11 09:53:12;;;;;;;37.88;14.50;;;1.50;62.90;;;;;;5113626;28;20495;-93
2022/01/11 09:55:38;;;;;;;40.35;15.98;;;1.60;62.70;;;;;;5107980;28;20026;-93
2022/01/11 09:58:07;;;;;;;34.55;14.77;;;1.80;62.50;;;;;;5112092;28;20037;-91
2022/01/11 10:00:33;;;;;;;34.97;12.90;;;1.90;62.30;;;;;;5100208;28;20032;-93
2022/01/11 10:02:59;;;;;;;38.72;15.10;;;2.10;62.10;;;;;;5106328;28;20383;-93
2022/01/11 10:05:25;;;;;;;41.53;15.87;;;2.30;61.90;;;;;;5112521;28;20023;-93
2022/01/11 10:07:50;;;;;;;43.75;15.95;;;2.50;61.50;;;;;;5113416;27;20030;-92
2022/01/11 10:10:23;;;;;;;35.63;14.65;;;2.70;61.20;;;;;;5118261;28;20487;-93
2022/01/11 10:12:51;;;;;;;34.17;13.80;;;2.90;60.80;;;;;;5111255;28;20143;-92
2022/01/11 10:15:32;;;;;;;36.13;15.57;;;3.10;60.50;;;;;;5122944;28;20073;-94
2022/01/11 10:17:58;;;;;;;35.80;15.07;;;3.10;60.20;;;;;;5123774;28;20410;-93
2022/01/11 10:20:25;;;;;;;37.15;14.05;;;3.20;60.10;;;;;;5096976;28;20019;-93
2022/01/11 10:22:59;;;;;;;35.50;15.10;;;3.30;59.90;;;;;;5116360;28;20369;-94
2022/01/11 10:25:25;;;;;;;36.60;14.57;;;3.40;59.40;;;;;;5120115;28;20035;-94
2022/01/11 10:28:03;;;;;;;32.67;13.90;;;3.50;59.20;;;;;;5108803;28;20047;-93
2022/01/11 10:30:30;;;;;;;30.00;13.43;;;3.60;58.80;;;;;;5122006;28;20062;-96
2022/01/11 10:33:00;;;;;;;32.50;15.27;;;3.70;58.90;;;;;;5123177;28;20492;-92
2022/01/11 10:35:29;;;;;;;30.03;12.93;;;3.80;58.70;;;;;;5118399;28;20016;-93
2022/01/11 10:37:57;;;;;;;35.67;14.40;;;4.20;58.20;;;;;;5116111;28;20012;-92
2022/01/11 10:40:26;;;;;;;29.17;12.90;;;4.50;57.60;;;;;;5103316;28;20024;-93
2022/01/11 10:42:54;;;;;;;26.23;11.87;;;4.60;57.30;;;;;;5102481;28;20032;-94
2022/01/11 10:45:24;;;;;;;23.37;8.93;;;4.70;57.00;;;;;;5118418;28;20075;-94
2022/01/11 10:47:53;;;;;;;18.30;8.53;;;4.60;56.20;;;;;;5117225;28;20008;-94
2022/01/11 10:50:37;;;;;;;17.80;8.83;;;4.50;56.00;;;;;;5101956;28;20539;-94
2022/01/11 10:53:11;;;;;;;18.90;9.40;;;4.40;55.60;;;;;;5102638;28;20020;-93
2022/01/11 10:55:38;;;;;;;23.53;10.83;;;4.20;55.80;;;;;;5102440;28;20005;-94
2022/01/11 10:58:10;;;;;;;22.47;10.93;;;4.20;56.10;;;;;;5111380;28;20030;-91
2022/01/11 11:00:40;;;;;;;19.60;9.53;;;4.10;56.10;;;;;;5114227;28;20004;-90
2022/01/11 11:03:13;;;;;;;21.60;9.63;;;4.00;56.20;;;;;;5104400;28;20072;-92
2022/01/11 11:05:49;;;;;;;18.43;8.13;;;4.00;56.20;;;;;;5104848;28;20031;-93
2022/01/11 11:08:24;;;;;;;19.40;9.20;;;4.00;56.00;;;;;;5103754;28;20021;-91
2022/01/11 11:10:56;;;;;;;17.33;9.20;;;4.30;55.80;;;;;;5113229;28;20084;-92
2022/01/11 11:13:27;;;;;;;19.30;9.07;;;4.60;55.20;;;;;;5115392;28;20028;-90
2022/01/11 11:15:56;;;;;;;19.23;8.60;;;4.90;54.60;;;;;;5112611;28;20026;-90
2022/01/11 11:18:23;;;;;;;26.67;10.40;;;4.90;54.30;;;;;;5106708;28;20057;-91
2022/01/11 11:20:48;;;;;;;20.03;10.67;;;5.00;54.10;;;;;;5108764;28;20032;-91
2022/01/11 11:23:16;;;;;;;22.23;11.05;;;5.00;54.10;;;;;;5111483;28;20040;-91
2022/01/11 11:25:43;;;;;;;24.77;11.60;;;4.90;54.30;;;;;;5107879;28;20062;-91
2022/01/11 11:28:09;;;;;;;24.87;11.33;;;4.70;54.20;;;;;;5112060;28;20042;-91
2022/01/11 11:30:35;;;;;;;27.73;11.67;;;4.50;54.50;;;;;;5110489;28;20374;-91
2022/01/11 11:33:02;;;;;;;27.05;11.63;;;4.30;54.80;;;;;;5111858;28;20149;-91
2022/01/11 11:35:28;;;;;;;25.70;12.20;;;4.10;55.00;;;;;;5111599;28;20072;-90
2022/01/11 11:38:00;;;;;;;22.85;11.05;;;3.90;55.20;;;;;;5110558;28;20039;-92
2022/01/11 11:40:27;;;;;;;26.57;11.70;;;4.30;55.00;;;;;;5105454;27;20024;-92
2022/01/11 11:42:55;;;;;;;26.40;11.83;;;4.60;54.30;;;;;;5116871;28;20027;-92
2022/01/11 11:45:24;;;;;;;30.17;13.53;;;4.90;53.70;;;;;;5102565;28;20083;-92
2022/01/11 11:48:10;;;;;;;27.87;12.93;;;5.20;53.10;;;;;;5110643;27;20036;-90
2022/01/11 11:50:57;;;;;;;25.10;12.47;;;5.30;52.50;;;;;;5099523;28;20040;-93
2022/01/11 11:53:38;;;;;;;27.63;13.33;;;5.30;52.40;;;;;;5105272;28;20027;-91
2022/01/11 11:56:16;;;;;;;28.10;13.73;;;5.30;52.30;;;;;;5121874;28;20053;-91
2022/01/11 11:58:56;;;;;;;22.93;11.93;;;5.40;52.20;;;;;;5114706;28;20073;-92
2022/01/11 12:02:25;;;;;;;24.17;13.33;;;5.30;51.90;;;;;;5082472;28;20023;-92
2022/01/11 12:04:53;;;;;;;29.80;12.43;;;5.10;52.20;;;;;;5081669;28;20485;-91
2022/01/11 12:07:40;;;;;;;26.50;13.00;;;5.10;52.60;;;;;;5101687;28;20035;-91
2022/01/11 12:10:12;;;;;;;29.30;12.83;;;5.20;52.10;;;;;;5099322;28;20030;-92
2022/01/11 12:12:51;;;;;;;25.27;11.87;;;5.60;51.90;;;;;;5099750;28;20023;-92
2022/01/11 12:15:33;;;;;;;26.40;11.33;;;5.90;51.10;;;;;;5100147;28;20020;-93
2022/01/11 12:17:58;;;;;;;25.03;12.17;;;6.10;50.70;;;;;;5100399;28;20032;-90
2022/01/11 12:20:52;;;;;;;25.88;11.00;;;6.30;50.70;;;;;;5088442;28;20048;-93
2022/01/11 12:23:41;;;;;;;22.43;10.37;;;6.50;50.20;;;;;;5101493;28;20120;-93
2022/01/11 12:26:14;;;;;;;23.37;10.80;;;6.90;49.50;;;;;;5119077;28;20072;-93
2022/01/11 12:28:40;;;;;;;23.13;10.67;;;7.40;49.00;;;;;;5115245;28;20074;-91
2022/01/11 12:31:26;;;;;;;19.48;10.43;;;8.10;48.30;;;;;;5112680;28;20024;-93
2022/01/11 12:33:51;;;;;;;18.67;11.05;;;9.00;46.60;;;;;;5108652;28;20020;-94
2022/01/11 12:36:17;;;;;;;;;;;10.00;45.70;;;;;;5102796;28;20426;-93
2022/01/11 12:39:07;;;;;;;21.40;10.70;;;10.70;45.10;;;;;;5108895;28;19915;-93
2022/01/11 12:41:37;;;;;;;22.35;10.38;;;11.30;43.30;;;;;;5107986;28;20019;-93
2022/01/11 12:44:27;;;;;;;21.48;10.82;;;11.50;42.60;;;;;;5118048;28;20028;-94
2022/01/11 12:46:55;;;;;;;22.55;11.30;;;11.80;41.70;;;;;;5110266;28;20046;-93
2022/01/11 12:49:25;;;;;;;18.60;10.85;;;12.10;41.80;;;;;;5109494;28;20012;-92
2022/01/11 12:51:54;;;;;;;19.73;10.77;;;12.60;40.70;;;;;;5112496;28;20024;-92
2022/01/11 12:54:34;;;;;;;19.33;11.23;;;12.90;40.20;;;;;;5108552;28;20121;-92
2022/01/11 12:57:15;;;;;;;21.50;11.15;;;13.30;38.50;;;;;;5102509;28;20027;-92
2022/01/11 12:59:45;;;;;;;23.85;12.45;;;13.60;38.00;;;;;;5151808;27;20054;-92
2022/01/11 13:02:16;;;;;;;27.55;11.88;;;13.60;38.00;;;;;;5117400;28;20457;-93